Terminal Aerodrome Forecast
Issued by NWS Goodland, KS

Home | Current Version | Previous Version | Text Only | Print | Product List | Glossary On
Versions: 1 2 3 4 5 6 7 8 9 10 11 12 13 14 15 16 17 18 19 20
231
FTUS43 KGLD 282333
TAFGLD
TAF
KGLD 282333Z 2900/2924 12005KT P6SM SCT200
     FM290400 09007KT P6SM VCTS SCT090CB BKN150
      TEMPO 2906/2907 -TSRA OVC040CB
     FM290900 04008KT P6SM SCT200
     FM291400 34008KT P6SM FEW200
     FM292100 36012KT P6SM SCT200=

USA.gov is the U.S. government's official web portal to all federal, state and local government web resources and services.